createdAt,value
2018-12-31T00:05:46.175Z,56.71
2018-12-31T00:08:12.331Z,56.23
2018-12-31T00:10:38.491Z,56.95
2018-12-31T00:13:04.796Z,58.27
2018-12-31T00:15:30.956Z,57.27
2018-12-31T00:17:57.109Z,57.57
2018-12-31T00:20:23.296Z,57.03
2018-12-31T00:22:49.556Z,56.93
2018-12-31T00:25:15.716Z,56.95
2018-12-31T00:27:41.903Z,57.53
2018-12-31T00:30:08.150Z,58.86
2018-12-31T00:32:34.304Z,57.78
2018-12-31T00:35:00.709Z,57.81
2018-12-31T00:37:26.862Z,58.01
2018-12-31T00:39:53.025Z,57.56
2018-12-31T00:42:19.218Z,57.80
2018-12-31T00:44:45.383Z,58.46
2018-12-31T00:47:11.526Z,58.36
2018-12-31T00:49:37.710Z,58.73
2018-12-31T00:52:03.872Z,58.24
2018-12-31T00:54:30.132Z,58.73
2018-12-31T00:56:56.326Z,58.18
2018-12-31T00:59:22.484Z,58.07
2018-12-31T01:01:48.631Z,58.29
2018-12-31T01:04:14.831Z,58.47
2018-12-31T01:06:46.847Z,58.81
2018-12-31T01:09:12.991Z,59.51
2018-12-31T01:11:39.182Z,59.20
2018-12-31T01:14:05.348Z,59.15
2018-12-31T01:16:31.498Z,59.01
2018-12-31T01:18:57.693Z,59.27
2018-12-31T01:21:23.851Z,59.52
2018-12-31T01:23:50.054Z,59.02
2018-12-31T01:26:16.344Z,59.20
2018-12-31T01:28:42.496Z,58.51
2018-12-31T01:31:08.643Z,59.01
2018-12-31T01:33:34.823Z,58.64
2018-12-31T01:36:01.081Z,58.89
2018-12-31T01:38:27.338Z,58.95
2018-12-31T01:43:25.787Z,58.80
2018-12-31T01:45:51.935Z,59.01
2018-12-31T01:48:18.119Z,59.03
2018-12-31T01:50:44.278Z,59.01
2018-12-31T01:53:10.437Z,58.96
2018-12-31T01:55:36.620Z,59.16
2018-12-31T02:00:50.458Z,59.97
2018-12-31T02:03:16.615Z,59.81
2018-12-31T02:05:42.764Z,59.96
2018-12-31T02:08:09.023Z,59.28
2018-12-31T02:13:42.643Z,59.77
2018-12-31T02:16:08.895Z,59.69
2018-12-31T02:18:35.054Z,59.59
2018-12-31T02:21:01.246Z,60.53
2018-12-31T02:23:27.532Z,60.50
2018-12-31T02:25:53.651Z,61.03
2018-12-31T02:28:19.836Z,60.87
2018-12-31T02:30:45.995Z,60.08
2018-12-31T02:33:12.142Z,59.75
2018-12-31T02:35:38.332Z,60.53
2018-12-31T02:38:04.493Z,60.68
2018-12-31T02:40:30.648Z,59.80
2018-12-31T02:42:56.843Z,59.21
2018-12-31T02:45:23.000Z,58.77
2018-12-31T02:47:49.164Z,59.58
2018-12-31T02:50:15.445Z,57.85
2018-12-31T02:52:41.600Z,58.08
2018-12-31T02:55:07.770Z,57.58
2018-12-31T02:57:33.947Z,57.49
2018-12-31T03:00:00.279Z,58.69
2018-12-31T03:02:28.147Z,57.92
2018-12-31T03:04:54.347Z,57.88
2018-12-31T03:07:20.500Z,58.35
2018-12-31T03:09:46.657Z,58.53
2018-12-31T03:12:12.843Z,57.99
2018-12-31T03:14:39.000Z,57.88
2018-12-31T03:17:05.153Z,57.97
2018-12-31T03:19:31.345Z,57.62
2018-12-31T03:21:57.504Z,58.07
2018-12-31T03:24:23.659Z,57.49
2018-12-31T03:26:49.901Z,59.46
2018-12-31T03:29:16.053Z,58.73
2018-12-31T03:31:42.202Z,58.37
2018-12-31T03:34:08.491Z,58.73
2018-12-31T03:36:34.649Z,59.03
2018-12-31T03:39:00.805Z,59.25
2018-12-31T03:41:26.996Z,59.04
2018-12-31T03:43:53.156Z,59.13
2018-12-31T03:46:19.306Z,58.87
2018-12-31T03:48:45.486Z,58.89
2018-12-31T03:51:11.751Z,59.31
2018-12-31T03:53:37.903Z,58.82
2018-12-31T03:56:04.195Z,58.42
2018-12-31T03:58:30.453Z,57.93
2018-12-31T04:00:56.610Z,57.75
2018-12-31T04:03:22.797Z,57.51
2018-12-31T04:05:48.953Z,57.64
2018-12-31T04:08:15.103Z,57.49
2018-12-31T04:10:41.295Z,57.94
2018-12-31T04:13:07.453Z,57.57
2018-12-31T04:15:33.606Z,58.18
2018-12-31T04:17:59.797Z,58.28
2018-12-31T04:20:25.951Z,58.46
2018-12-31T04:22:52.102Z,58.56
2018-12-31T04:25:18.289Z,57.50
2018-12-31T04:27:57.089Z,57.98
2018-12-31T04:30:23.305Z,57.50
2018-12-31T04:32:49.526Z,56.53
2018-12-31T04:35:15.686Z,56.72
2018-12-31T04:37:41.876Z,56.49
2018-12-31T04:40:08.025Z,59.40
2018-12-31T04:42:34.392Z,60.87
2018-12-31T04:45:00.583Z,65.64
2018-12-31T04:47:26.742Z,68.33
2018-12-31T04:49:53.098Z,67.36
2018-12-31T04:52:19.450Z,66.91
2018-12-31T04:54:45.746Z,66.33
2018-12-31T04:57:11.903Z,66.59
2018-12-31T04:59:38.097Z,66.56
2018-12-31T05:02:04.240Z,67.31
2018-12-31T05:04:30.385Z,66.93
2018-12-31T05:06:56.574Z,66.77
2018-12-31T05:09:22.734Z,67.26
2018-12-31T05:11:49.937Z,65.85
2018-12-31T05:16:56.024Z,64.81
2018-12-31T05:19:22.180Z,64.86
2018-12-31T05:21:48.444Z,65.06
2018-12-31T05:24:14.646Z,64.96
2018-12-31T05:26:40.794Z,65.09
2018-12-31T05:29:07.049Z,65.04
2018-12-31T05:31:33.234Z,64.23
2018-12-31T05:33:59.387Z,63.97
2018-12-31T05:36:25.545Z,64.26
2018-12-31T05:38:51.888Z,64.19
2018-12-31T05:41:18.038Z,64.68
2018-12-31T05:43:44.199Z,64.51
2018-12-31T05:46:10.400Z,64.60
2018-12-31T05:48:36.557Z,64.46
2018-12-31T05:51:02.839Z,64.27
2018-12-31T05:53:29.012Z,63.91
2018-12-31T05:55:55.168Z,63.65
2018-12-31T05:58:21.329Z,63.83
2018-12-31T06:00:47.527Z,63.55
2018-12-31T06:03:13.678Z,63.47
2018-12-31T06:05:39.831Z,63.46
2018-12-31T06:08:06.008Z,62.97
2018-12-31T06:10:32.172Z,62.22
2018-12-31T06:12:58.323Z,61.81
2018-12-31T06:15:24.505Z,61.48
2018-12-31T06:17:50.659Z,61.77
2018-12-31T06:20:16.816Z,61.88
2018-12-31T06:22:43.025Z,62.01
2018-12-31T06:25:09.293Z,62.00
2018-12-31T06:27:35.449Z,61.26
2018-12-31T06:30:02.267Z,61.51
2018-12-31T06:32:29.963Z,61.63
2018-12-31T06:34:56.144Z,62.43
2018-12-31T06:37:22.339Z,62.38
2018-12-31T06:39:48.490Z,61.93
2018-12-31T06:42:14.650Z,60.82
2018-12-31T06:44:40.897Z,60.22
2018-12-31T06:47:07.061Z,59.90
2018-12-31T06:49:33.217Z,59.89
2018-12-31T06:51:59.408Z,58.93
2018-12-31T06:54:25.667Z,58.63
2018-12-31T06:56:51.820Z,58.60
2018-12-31T06:59:18.004Z,58.60
2018-12-31T07:01:44.150Z,58.87
2018-12-31T07:04:10.409Z,58.30
2018-12-31T07:06:36.599Z,58.34
2018-12-31T07:10:00.044Z,57.47
2018-12-31T07:12:26.232Z,56.06
2018-12-31T07:14:52.392Z,55.45
2018-12-31T07:17:18.546Z,55.89
2018-12-31T07:19:44.733Z,54.96
2018-12-31T07:22:10.996Z,55.08
2018-12-31T07:24:37.151Z,54.76
2018-12-31T07:27:03.350Z,54.23
2018-12-31T07:29:29.507Z,53.95
2018-12-31T07:31:55.725Z,53.80
2018-12-31T07:34:22.010Z,53.41
2018-12-31T07:36:48.170Z,53.60
2018-12-31T07:39:14.333Z,53.60
2018-12-31T07:41:40.525Z,53.81
2018-12-31T07:44:06.679Z,53.58
2018-12-31T07:46:32.832Z,53.54
2018-12-31T07:48:59.031Z,52.50
2018-12-31T07:51:25.189Z,51.72
2018-12-31T07:53:51.343Z,50.81
2018-12-31T07:56:17.528Z,51.27
2018-12-31T07:58:43.689Z,50.87
2018-12-31T08:01:09.841Z,50.39
2018-12-31T08:03:36.032Z,51.22
2018-12-31T08:06:02.374Z,50.84
2018-12-31T08:08:28.676Z,51.42
2018-12-31T08:10:54.868Z,49.55
2018-12-31T08:13:21.156Z,50.00
2018-12-31T08:18:39.827Z,48.86
2018-12-31T08:21:06.117Z,49.33
2018-12-31T08:23:32.264Z,48.85
2018-12-31T08:25:58.573Z,47.82
2018-12-31T08:28:24.742Z,48.71
2018-12-31T08:30:51.063Z,53.40
2018-12-31T08:33:17.316Z,54.47
2018-12-31T08:35:43.497Z,54.66
2018-12-31T08:38:09.644Z,55.13
2018-12-31T08:40:35.819Z,57.25
2018-12-31T08:43:02.126Z,57.22
2018-12-31T08:45:28.284Z,55.52
2018-12-31T08:47:54.582Z,54.42
2018-12-31T08:50:20.736Z,53.71
2018-12-31T08:52:46.887Z,52.96
2018-12-31T08:55:13.186Z,52.15
2018-12-31T08:57:39.323Z,52.58
2018-12-31T09:00:46.925Z,51.99
2018-12-31T09:03:13.079Z,51.82
2018-12-31T09:05:39.231Z,51.25
2018-12-31T09:08:05.428Z,50.92
2018-12-31T09:10:31.597Z,50.90
2018-12-31T09:13:17.757Z,50.33
2018-12-31T09:15:43.985Z,51.96
2018-12-31T09:18:10.147Z,50.80
2018-12-31T09:20:36.452Z,50.98
2018-12-31T09:23:02.735Z,48.32
2018-12-31T09:25:28.895Z,46.33
2018-12-31T09:27:55.102Z,48.40
2018-12-31T09:30:21.359Z,47.98
2018-12-31T09:32:47.518Z,47.87
2018-12-31T09:35:13.773Z,49.51
2018-12-31T09:37:39.933Z,48.48
2018-12-31T09:40:06.098Z,49.00
2018-12-31T09:42:32.288Z,50.44
2018-12-31T09:44:58.440Z,52.40
2018-12-31T09:47:24.592Z,52.96
2018-12-31T09:49:50.788Z,52.95
2018-12-31T09:52:16.944Z,53.98
2018-12-31T09:54:42.995Z,53.95
2018-12-31T09:57:09.202Z,52.94
2018-12-31T09:59:35.356Z,51.50
2018-12-31T10:02:01.511Z,50.45
2018-12-31T10:04:27.688Z,51.77
2018-12-31T10:06:53.841Z,52.04
2018-12-31T10:09:20.100Z,52.85
2018-12-31T10:11:46.419Z,52.36
2018-12-31T10:14:12.578Z,54.68
2018-12-31T10:16:38.855Z,55.38
2018-12-31T10:19:05.036Z,54.25
2018-12-31T10:21:31.213Z,54.21
2018-12-31T10:23:57.381Z,52.76
2018-12-31T10:26:23.574Z,52.19
2018-12-31T10:28:49.736Z,52.11
2018-12-31T10:31:15.903Z,53.38
2018-12-31T10:33:42.205Z,53.74
2018-12-31T10:36:09.316Z,53.54
2018-12-31T10:38:35.603Z,52.50
2018-12-31T10:41:01.774Z,51.82
2018-12-31T10:43:27.938Z,53.35
2018-12-31T10:45:54.099Z,52.96
2018-12-31T10:48:20.298Z,49.64
2018-12-31T10:50:46.457Z,50.61
2018-12-31T10:53:12.615Z,51.84
2018-12-31T10:55:38.930Z,53.07
2018-12-31T10:58:05.086Z,51.73
2018-12-31T11:00:31.251Z,50.30
2018-12-31T11:02:57.442Z,50.15
2018-12-31T11:05:23.699Z,51.88
2018-12-31T11:07:49.862Z,53.64
2018-12-31T11:10:16.193Z,54.42
2018-12-31T11:12:42.489Z,54.57
2018-12-31T11:15:08.990Z,51.36
2018-12-31T11:17:35.203Z,50.63
2018-12-31T11:20:01.362Z,49.98
2018-12-31T11:22:27.624Z,53.80
2018-12-31T11:24:53.808Z,53.31
2018-12-31T11:27:19.968Z,52.73
2018-12-31T11:29:46.127Z,52.36
2018-12-31T11:32:12.315Z,51.90
2018-12-31T11:34:38.476Z,52.92
2018-12-31T11:37:04.843Z,54.04
2018-12-31T11:39:31.041Z,54.21
2018-12-31T11:41:58.135Z,54.31
2018-12-31T11:44:25.252Z,53.21
2018-12-31T11:46:51.461Z,52.53
2018-12-31T11:49:17.732Z,49.73
2018-12-31T11:51:43.892Z,51.67
2018-12-31T11:54:10.083Z,51.38
2018-12-31T11:56:36.233Z,49.01
2018-12-31T11:59:02.495Z,47.76
2018-12-31T12:01:28.802Z,49.01
2018-12-31T12:03:54.963Z,48.02
2018-12-31T12:06:21.239Z,48.08
2018-12-31T12:08:47.539Z,47.50
2018-12-31T12:11:13.704Z,45.90
2018-12-31T12:13:39.864Z,46.54
2018-12-31T12:16:06.204Z,48.55
2018-12-31T12:18:32.356Z,48.39
2018-12-31T12:20:58.523Z,47.35
2018-12-31T12:23:24.763Z,46.03
2018-12-31T12:25:52.835Z,45.37
2018-12-31T12:28:19.008Z,46.92
2018-12-31T12:30:45.291Z,46.29
2018-12-31T12:33:11.452Z,46.20
2018-12-31T12:35:37.715Z,45.84
2018-12-31T12:38:04.021Z,45.72
2018-12-31T12:40:32.078Z,46.07
2018-12-31T12:42:58.236Z,45.33
2018-12-31T12:45:24.702Z,46.86
2018-12-31T12:47:50.864Z,46.56
2018-12-31T12:50:17.029Z,46.18
2018-12-31T12:52:43.333Z,44.65
2018-12-31T12:55:11.394Z,46.27
2018-12-31T12:57:37.555Z,44.88
2018-12-31T13:00:45.170Z,45.01
2018-12-31T13:03:11.337Z,44.87
2018-12-31T13:05:37.502Z,45.24
2018-12-31T13:08:03.796Z,46.44
2018-12-31T13:10:29.967Z,46.14
2018-12-31T13:12:56.134Z,45.68
2018-12-31T13:15:29.684Z,44.62
2018-12-31T13:17:55.839Z,45.53
2018-12-31T13:20:21.998Z,45.01
2018-12-31T13:22:48.292Z,45.45
2018-12-31T13:25:14.459Z,45.45
2018-12-31T13:27:40.621Z,45.25
2018-12-31T13:30:07.115Z,44.79
2018-12-31T13:32:33.382Z,44.89
2018-12-31T13:34:59.530Z,43.54
2018-12-31T13:37:25.723Z,43.01
2018-12-31T13:39:51.890Z,44.15
2018-12-31T13:42:18.051Z,45.09
2018-12-31T13:44:44.321Z,44.52
2018-12-31T13:47:10.488Z,46.43
2018-12-31T13:49:36.792Z,47.28
2018-12-31T13:52:03.104Z,46.69
2018-12-31T13:54:29.270Z,46.93
2018-12-31T13:56:55.440Z,45.29
2018-12-31T13:59:21.764Z,45.06
2018-12-31T14:01:48.272Z,44.98
2018-12-31T14:04:14.582Z,45.85
2018-12-31T14:06:40.783Z,44.96
2018-12-31T14:09:06.960Z,46.15
2018-12-31T14:11:53.017Z,46.39
2018-12-31T14:14:19.172Z,45.90
2018-12-31T14:16:45.339Z,49.37
2018-12-31T14:19:11.539Z,46.72
2018-12-31T14:21:37.850Z,46.53
2018-12-31T14:24:04.188Z,46.46
2018-12-31T14:26:52.019Z,46.61
2018-12-31T14:29:18.180Z,48.12
2018-12-31T14:31:44.432Z,47.93
2018-12-31T14:34:10.817Z,48.76
2018-12-31T14:36:37.008Z,49.30
2018-12-31T14:39:44.707Z,50.41
2018-12-31T14:42:10.966Z,53.04
2018-12-31T14:44:37.315Z,51.76
2018-12-31T14:47:03.517Z,51.81
2018-12-31T14:49:29.679Z,53.81
2018-12-31T14:51:55.833Z,53.39
2018-12-31T14:54:22.048Z,53.68
2018-12-31T14:56:48.203Z,56.32
2018-12-31T14:59:36.045Z,54.90
2018-12-31T15:02:02.233Z,54.69
2018-12-31T15:04:28.383Z,55.53
2018-12-31T15:06:54.580Z,55.91
2018-12-31T15:09:20.735Z,57.90
2018-12-31T15:11:46.885Z,57.77
2018-12-31T15:14:13.178Z,58.16
2018-12-31T15:16:39.447Z,58.51
2018-12-31T15:19:05.599Z,59.12
2018-12-31T15:21:31.785Z,59.40
2018-12-31T15:23:58.057Z,60.15
2018-12-31T15:26:24.317Z,60.47
2018-12-31T15:28:50.500Z,60.46
2018-12-31T15:31:16.652Z,60.72
2018-12-31T15:33:42.805Z,61.19
2018-12-31T15:36:08.988Z,59.88
2018-12-31T15:38:35.138Z,59.15
2018-12-31T15:41:03.322Z,59.69
2018-12-31T15:43:29.544Z,60.21
2018-12-31T15:45:55.704Z,58.96
2018-12-31T15:48:21.859Z,58.86
2018-12-31T15:50:48.054Z,58.64
2018-12-31T15:53:14.314Z,58.81
2018-12-31T15:55:40.471Z,59.11
2018-12-31T15:58:06.659Z,60.05
2018-12-31T16:00:32.811Z,59.95
2018-12-31T16:02:58.967Z,60.17
2018-12-31T16:05:25.161Z,60.27
2018-12-31T16:07:51.219Z,60.20
2018-12-31T16:10:17.475Z,60.74
2018-12-31T16:12:45.675Z,61.71
2018-12-31T16:15:11.833Z,62.36
2018-12-31T16:17:38.034Z,62.66
2018-12-31T16:20:45.625Z,63.33
2018-12-31T16:23:11.793Z,63.44
2018-12-31T16:25:38.071Z,64.01
2018-12-31T16:28:04.287Z,64.05
2018-12-31T16:30:30.443Z,64.34
2018-12-31T16:32:56.602Z,64.84
2018-12-31T16:35:22.784Z,64.41
2018-12-31T16:37:48.937Z,64.71
2018-12-31T16:40:15.100Z,64.87
2018-12-31T16:42:41.291Z,66.43
2018-12-31T16:45:07.621Z,66.61
2018-12-31T16:47:33.757Z,66.31
2018-12-31T16:50:00.167Z,65.67
2018-12-31T16:52:26.310Z,66.32
2018-12-31T16:54:52.465Z,65.80
2018-12-31T16:57:18.656Z,66.29
2018-12-31T16:59:44.907Z,66.68
2018-12-31T17:02:11.069Z,67.05
2018-12-31T17:04:39.171Z,67.83
2018-12-31T17:07:05.323Z,68.41
2018-12-31T17:09:31.592Z,68.17
2018-12-31T17:11:57.809Z,67.98
2018-12-31T17:14:24.084Z,68.21
2018-12-31T17:16:50.248Z,68.55
2018-12-31T17:19:16.431Z,68.95
2018-12-31T17:21:43.103Z,69.16
2018-12-31T17:24:09.267Z,69.37
2018-12-31T17:26:35.451Z,69.66
2018-12-31T17:29:01.600Z,70.14
2018-12-31T17:31:27.758Z,72.30
2018-12-31T17:33:53.967Z,71.96
2018-12-31T17:36:22.140Z,70.30
2018-12-31T17:38:49.062Z,69.49
2018-12-31T17:41:36.248Z,69.52
2018-12-31T17:44:02.408Z,69.87
2018-12-31T17:49:16.348Z,70.11
2018-12-31T17:51:42.511Z,69.99
2018-12-31T17:54:08.673Z,70.78
2018-12-31T17:56:34.879Z,70.63
2018-12-31T17:59:02.949Z,70.62
2018-12-31T18:01:29.103Z,70.48
2018-12-31T18:03:55.296Z,70.65
2018-12-31T18:06:21.455Z,70.44
2018-12-31T18:08:47.620Z,70.53
2018-12-31T18:11:13.921Z,70.60
2018-12-31T18:13:41.978Z,70.31
2018-12-31T18:16:08.138Z,70.16
2018-12-31T18:18:34.325Z,70.20
2018-12-31T18:21:00.492Z,70.02
2018-12-31T18:23:26.653Z,69.88
2018-12-31T18:25:52.850Z,69.40
2018-12-31T18:28:19.106Z,69.01
2018-12-31T18:30:45.347Z,68.65
2018-12-31T18:33:11.682Z,68.59
2018-12-31T18:35:37.839Z,68.22
2018-12-31T18:38:03.997Z,68.28
2018-12-31T18:40:30.286Z,68.26
2018-12-31T18:42:56.448Z,68.37
2018-12-31T18:45:22.807Z,68.19
2018-12-31T18:47:49.039Z,67.74
2018-12-31T18:50:15.292Z,68.44
2018-12-31T18:52:41.454Z,69.14
2018-12-31T18:55:07.655Z,69.30
2018-12-31T18:57:33.812Z,69.77
2018-12-31T19:00:01.868Z,69.67
2018-12-31T19:02:28.074Z,69.23
2018-12-31T19:04:54.237Z,69.04
2018-12-31T19:07:20.397Z,69.09
2018-12-31T19:09:46.586Z,68.77
2018-12-31T19:12:12.852Z,68.46
2018-12-31T19:14:39.007Z,67.96
2018-12-31T19:17:05.196Z,67.49
2018-12-31T19:19:31.346Z,66.98
2018-12-31T19:21:57.512Z,66.59
2018-12-31T19:24:23.688Z,66.77
2018-12-31T19:26:49.838Z,66.72
2018-12-31T19:29:15.988Z,66.91
2018-12-31T19:31:44.293Z,66.87
2018-12-31T19:34:12.139Z,67.09
2018-12-31T19:36:38.294Z,66.88
2018-12-31T19:39:45.918Z,67.36
2018-12-31T19:42:12.097Z,67.08
2018-12-31T19:44:38.257Z,67.05
2018-12-31T19:47:04.557Z,67.15
2018-12-31T19:49:30.723Z,67.25
2018-12-31T19:51:56.883Z,67.08
2018-12-31T19:54:25.064Z,66.84
2018-12-31T19:56:51.225Z,66.64
2018-12-31T19:59:17.375Z,66.67
2018-12-31T20:01:43.575Z,67.12
2018-12-31T20:04:09.741Z,67.49
2018-12-31T20:06:35.914Z,67.52
2018-12-31T20:09:57.762Z,67.22
2018-12-31T20:12:13.473Z,67.70
2018-12-31T20:14:42.443Z,68.21
2018-12-31T20:17:08.767Z,68.06
2018-12-31T20:19:34.930Z,68.20
2018-12-31T20:24:53.740Z,69.00
2018-12-31T20:27:19.901Z,69.94
2018-12-31T20:29:46.072Z,70.30
2018-12-31T20:32:12.268Z,70.34
2018-12-31T20:34:38.441Z,70.68
2018-12-31T20:37:04.596Z,71.00
2018-12-31T20:39:30.890Z,70.95
2018-12-31T20:41:57.054Z,71.05
2018-12-31T20:44:23.216Z,70.87
2018-12-31T20:46:49.414Z,70.34
2018-12-31T20:49:15.582Z,70.23
2018-12-31T20:51:41.757Z,69.99
2018-12-31T20:54:07.977Z,70.00
2018-12-31T20:56:34.142Z,70.16
2018-12-31T20:59:00.401Z,70.00
2018-12-31T21:01:26.797Z,70.01
2018-12-31T21:03:52.933Z,70.22
2018-12-31T21:06:19.088Z,70.37
2018-12-31T21:08:45.272Z,70.07
2018-12-31T21:11:11.440Z,70.19
2018-12-31T21:13:37.595Z,70.81
2018-12-31T21:16:05.487Z,71.01
2018-12-31T21:18:31.843Z,70.67
2018-12-31T21:20:58.022Z,70.44
2018-12-31T21:23:24.293Z,70.27
2018-12-31T21:25:50.452Z,70.79
2018-12-31T21:28:16.613Z,71.29
2018-12-31T21:30:42.814Z,71.38
2018-12-31T21:33:10.867Z,71.23
2018-12-31T21:35:37.027Z,71.46
2018-12-31T21:38:03.326Z,71.40
2018-12-31T21:40:29.490Z,70.91
2018-12-31T21:42:55.654Z,70.75
2018-12-31T21:45:21.969Z,70.73
2018-12-31T21:47:48.229Z,70.65
2018-12-31T21:50:27.844Z,71.19
2018-12-31T21:52:54.014Z,70.82
2018-12-31T21:55:20.165Z,70.73
2018-12-31T21:57:46.362Z,70.97
2018-12-31T22:00:12.512Z,71.10
2018-12-31T22:02:40.575Z,70.82
2018-12-31T22:05:06.761Z,70.61
2018-12-31T22:07:32.914Z,70.38
2018-12-31T22:09:59.077Z,71.17
2018-12-31T22:12:25.276Z,71.14
2018-12-31T22:14:51.428Z,70.96
2018-12-31T22:17:17.583Z,71.00
2018-12-31T22:19:43.781Z,71.24
2018-12-31T22:22:09.944Z,71.33
2018-12-31T22:24:36.199Z,70.86
2018-12-31T22:27:02.488Z,70.89
2018-12-31T22:29:28.649Z,70.68
2018-12-31T22:31:54.809Z,71.01
2018-12-31T22:34:21.202Z,71.08
2018-12-31T22:36:47.351Z,71.26
2018-12-31T22:39:13.505Z,71.03
2018-12-31T22:41:39.698Z,71.09
2018-12-31T22:44:05.855Z,71.09
2018-12-31T22:46:32.003Z,71.11
2018-12-31T22:48:58.398Z,70.95
2018-12-31T22:51:37.910Z,70.90
2018-12-31T22:54:04.098Z,70.76
2018-12-31T22:56:30.254Z,70.59
2018-12-31T22:58:56.428Z,70.44
2018-12-31T23:01:22.733Z,70.45
2018-12-31T23:03:48.888Z,70.56
2018-12-31T23:06:15.041Z,71.25
2018-12-31T23:08:41.255Z,71.24
2018-12-31T23:11:07.413Z,71.32
2018-12-31T23:13:33.567Z,71.89
2018-12-31T23:15:59.757Z,72.29
2018-12-31T23:18:26.109Z,72.57
2018-12-31T23:20:52.276Z,72.57
2018-12-31T23:23:18.597Z,72.24
2018-12-31T23:25:44.756Z,72.31
2018-12-31T23:28:11.800Z,72.61
2018-12-31T23:30:37.999Z,72.92
2018-12-31T23:33:04.279Z,74.19
2018-12-31T23:35:31.313Z,74.73
2018-12-31T23:37:58.632Z,74.43
2018-12-31T23:40:24.790Z,73.43
2018-12-31T23:42:50.949Z,72.92
2018-12-31T23:45:17.136Z,72.23
2018-12-31T23:47:43.293Z,72.20
2018-12-31T23:50:11.344Z,73.38
2018-12-31T23:52:37.547Z,72.19
2018-12-31T23:58:17.533Z,73.83
